createdAt,value
2023-05-09T00:00:00.868Z,67.32
2023-05-09T00:10:05.583Z,67.54
2023-05-09T00:20:10.251Z,67.82
2023-05-09T00:30:13.441Z,68.00
2023-05-09T00:40:17.599Z,68.33
2023-05-09T00:50:24.964Z,68.70
2023-05-09T01:00:28.861Z,68.81
2023-05-09T01:10:37.733Z,69.16
2023-05-09T01:20:44.161Z,69.27
2023-05-09T01:30:47.545Z,69.73
2023-05-09T01:40:54.700Z,69.65
2023-05-09T01:51:00.395Z,69.94
2023-05-09T02:01:04.208Z,70.25
2023-05-09T02:11:07.585Z,70.16
2023-05-09T02:21:11.566Z,70.12
2023-05-09T02:31:17.902Z,70.11
2023-05-09T02:41:22.216Z,69.98
2023-05-09T02:51:26.070Z,70.28
2023-05-09T03:01:30.001Z,70.20
2023-05-09T03:11:36.131Z,70.48
2023-05-09T03:21:39.921Z,70.49
2023-05-09T03:31:43.641Z,70.62
2023-05-09T03:41:48.348Z,70.64
2023-05-09T03:51:52.017Z,70.33
2023-05-09T04:01:55.828Z,69.09
2023-05-09T04:12:02.996Z,67.63
2023-05-09T04:22:06.685Z,65.69
2023-05-09T04:32:11.444Z,64.82
2023-05-09T04:42:15.198Z,63.78
2023-05-09T04:52:22.123Z,63.08
2023-05-09T05:02:26.081Z,62.00
2023-05-09T05:12:30.469Z,61.66
2023-05-09T05:22:38.260Z,60.87
2023-05-09T05:32:43.045Z,60.32
2023-05-09T05:52:50.509Z,58.68
2023-05-09T06:02:54.205Z,58.25
2023-05-09T06:12:57.968Z,57.50
2023-05-09T06:23:01.627Z,56.32
2023-05-09T06:33:05.638Z,55.55
2023-05-09T06:43:09.827Z,55.78
2023-05-09T06:53:13.638Z,54.55
2023-05-09T07:03:17.374Z,53.01
2023-05-09T07:13:21.296Z,53.42
2023-05-09T07:23:26.600Z,53.95
2023-05-09T07:33:29.778Z,52.82
2023-05-09T07:43:33.582Z,51.14
2023-05-09T07:53:37.236Z,49.95
2023-05-09T08:03:41.400Z,49.89
2023-05-09T08:25:40.300Z,47.29
2023-05-09T08:35:44.251Z,47.38
2023-05-09T08:45:51.188Z,47.16
2023-05-09T08:55:58.814Z,46.60
2023-05-09T09:06:03.018Z,46.20
2023-05-09T09:16:09.590Z,45.56
2023-05-09T09:26:13.794Z,44.02
2023-05-09T09:36:26.470Z,43.45
2023-05-09T09:46:31.547Z,42.74
2023-05-09T09:56:41.199Z,41.84
2023-05-09T10:06:52.560Z,42.02
2023-05-09T10:16:57.200Z,41.17
2023-05-09T10:27:06.532Z,40.55
2023-05-09T10:37:11.203Z,40.33
2023-05-09T10:47:15.865Z,40.46
2023-05-09T10:57:19.621Z,39.64
2023-05-09T11:07:27.757Z,40.09
2023-05-09T11:17:38.060Z,40.02
2023-05-09T11:27:41.986Z,40.03
2023-05-09T11:37:48.350Z,40.65
2023-05-09T11:47:53.664Z,40.45
2023-05-09T11:58:01.051Z,40.55
2023-05-09T12:08:04.993Z,40.14
2023-05-09T12:28:13.832Z,38.90
2023-05-09T12:38:22.033Z,38.89
2023-05-09T12:48:26.264Z,38.96
2023-05-09T12:58:30.126Z,38.72
2023-05-09T13:08:34.115Z,37.69
2023-05-09T13:18:37.946Z,37.38
2023-05-09T13:28:41.548Z,37.48
2023-05-09T13:38:45.727Z,37.53
2023-05-09T13:48:49.542Z,37.94
2023-05-09T13:58:53.220Z,37.78
2023-05-09T14:08:57.732Z,37.64
2023-05-09T14:19:01.661Z,37.44
2023-05-09T14:29:06.662Z,38.12
2023-05-09T14:39:10.457Z,37.60
2023-05-09T14:49:38.337Z,37.54
2023-05-09T14:59:42.445Z,37.91
2023-05-09T15:09:46.674Z,38.28
2023-05-09T15:19:50.569Z,38.17
2023-05-09T15:29:54.772Z,38.50
2023-05-09T15:40:03.775Z,38.53
2023-05-09T15:50:09.726Z,38.16
2023-05-09T16:00:15.969Z,38.06
2023-05-09T16:10:20.425Z,38.27
2023-05-09T16:20:24.581Z,38.73
2023-05-09T16:30:27.090Z,38.80
2023-05-09T16:40:31.019Z,39.00
2023-05-09T16:50:35.524Z,39.26
2023-05-09T17:00:39.163Z,39.15
2023-05-09T17:11:08.264Z,39.40
2023-05-09T17:21:12.731Z,39.88
2023-05-09T17:31:16.486Z,40.05
2023-05-09T17:41:20.355Z,40.18
2023-05-09T17:51:23.996Z,40.63
2023-05-09T18:01:27.640Z,41.13
2023-05-09T18:11:31.423Z,41.56
2023-05-09T18:21:34.939Z,41.95
2023-05-09T18:31:42.407Z,42.43
2023-05-09T18:41:55.488Z,42.95
2023-05-09T18:51:59.645Z,43.40
2023-05-09T19:02:03.749Z,43.97
2023-05-09T19:12:09.098Z,44.43
2023-05-09T19:22:16.216Z,45.01
2023-05-09T19:32:19.410Z,45.45
2023-05-09T19:42:22.672Z,45.83
2023-05-09T19:52:26.096Z,46.32
2023-05-09T20:02:33.674Z,46.66
2023-05-09T20:12:37.481Z,47.09
2023-05-09T20:22:41.196Z,47.53
2023-05-09T20:32:45.276Z,47.93
2023-05-09T20:42:49.369Z,48.15
2023-05-09T20:52:53.615Z,48.39
2023-05-09T21:02:58.866Z,48.45
2023-05-09T21:13:03.963Z,48.58
2023-05-09T21:23:11.404Z,48.67
2023-05-09T21:33:15.090Z,48.64
2023-05-09T21:43:19.656Z,48.54
2023-05-09T21:53:23.359Z,48.67
2023-05-09T22:03:28.215Z,48.65
2023-05-09T22:14:00.422Z,48.79
2023-05-09T22:24:04.848Z,48.77
2023-05-09T22:34:08.483Z,48.79
2023-05-09T22:44:12.159Z,48.83
2023-05-09T22:54:21.386Z,48.81
2023-05-09T23:04:25.171Z,48.95
2023-05-09T23:14:29.032Z,49.04
2023-05-09T23:24:33.595Z,49.19
2023-05-09T23:34:37.345Z,49.29
2023-05-09T23:44:41.660Z,49.70
2023-05-09T23:54:46.004Z,49.93
